Time;durP1;ratioP1;P1;durP2;ratioP2;P2;SDS_P1;SDS_P2;PMS_P1;PMS_P2;Temp;Humidity;BMP_temperature;BMP_pressure;BME280_temperature;BME280_humidity;BME280_pressure;Samples;Min_cycle;Max_cycle;Signal;HPM_P1;HPM_P2
2022/05/09 00:00:45;;;;;;;10.80;8.60;;;12.50;99.90;;;;;;494642;240;28297;-70
2022/05/09 00:02:46;;;;;;;10.00;9.00;;;12.50;99.90;;;;;;494659;240;28154;-72
2022/05/09 00:04:47;;;;;;;9.90;8.40;;;12.50;99.90;;;;;;494643;240;28293;-70
2022/05/09 00:06:49;;;;;;;10.10;8.73;;;12.50;99.90;;;;;;494630;240;28244;-70
2022/05/09 00:08:50;;;;;;;11.40;8.57;;;12.50;99.90;;;;;;494641;240;28034;-69
2022/05/09 00:10:51;;;;;;;9.60;8.17;;;12.50;99.90;;;;;;494635;240;28560;-70
2022/05/09 00:12:52;;;;;;;8.80;7.40;;;12.40;99.90;;;;;;494630;240;28765;-72
2022/05/09 00:14:54;;;;;;;9.03;7.97;;;12.30;99.90;;;;;;494644;240;28792;-70
2022/05/09 00:16:55;;;;;;;9.10;8.00;;;12.30;99.90;;;;;;494639;240;28598;-70
2022/05/09 00:18:56;;;;;;;8.50;6.77;;;12.20;99.90;;;;;;494609;240;28885;-70
2022/05/09 00:20:57;;;;;;;6.80;5.97;;;12.10;99.90;;;;;;494665;240;28369;-70
2022/05/09 00:22:59;;;;;;;7.10;6.20;;;12.00;99.90;;;;;;494674;240;28331;-72
2022/05/09 00:25:00;;;;;;;6.50;5.80;;;11.90;99.90;;;;;;494689;240;28016;-70
2022/05/09 00:27:01;;;;;;;6.37;5.60;;;11.90;99.90;;;;;;494540;240;28362;-72
2022/05/09 00:29:02;;;;;;;5.97;5.37;;;11.80;99.90;;;;;;494660;240;28142;-70
2022/05/09 00:31:04;;;;;;;5.27;4.87;;;11.80;99.90;;;;;;494608;240;28201;-71
2022/05/09 00:33:05;;;;;;;5.23;4.80;;;11.80;99.90;;;;;;494641;240;28312;-73
2022/05/09 00:35:08;;;;;;;5.00;4.60;;;11.80;99.90;;;;;;494651;240;28325;-70
2022/05/09 00:37:07;;;;;;;4.60;4.20;;;11.80;99.90;;;;;;494434;240;28415;-69
2022/05/09 00:39:09;;;;;;;4.73;4.27;;;11.60;99.90;;;;;;494654;240;29357;-70
2022/05/09 00:43:30;;;;;;;6.60;4.23;;;11.20;99.90;;;;;;494588;240;28800;-71
2022/05/09 00:45:31;;;;;;;5.40;4.30;;;11.20;99.90;;;;;;494627;240;28135;-70
2022/05/09 00:47:32;;;;;;;4.53;4.17;;;11.20;99.90;;;;;;494645;240;27943;-70
2022/05/09 00:49:33;;;;;;;4.60;4.20;;;11.10;99.90;;;;;;494634;240;28144;-72
2022/05/09 00:51:35;;;;;;;5.10;4.60;;;11.00;99.90;;;;;;494631;240;28080;-70
2022/05/09 00:53:36;;;;;;;4.73;4.23;;;10.90;99.90;;;;;;494629;240;28157;-70
2022/05/09 00:55:40;;;;;;;4.17;3.87;;;10.80;99.90;;;;;;494607;240;28097;-70
2022/05/09 00:57:38;;;;;;;3.90;3.60;;;10.80;99.90;;;;;;494450;240;27950;-70
2022/05/09 00:59:40;;;;;;;4.10;3.80;;;10.80;99.90;;;;;;494656;240;28253;-72
2022/05/09 01:01:41;;;;;;;4.10;3.70;;;10.80;99.90;;;;;;494659;240;27980;-70
2022/05/09 01:03:42;;;;;;;4.53;3.97;;;10.90;99.90;;;;;;494568;240;28506;-71
2022/05/09 01:05:50;;;;;;;4.53;4.13;;;10.90;99.90;;;;;;494603;240;29260;-70
2022/05/09 01:07:45;;;;;;;3.77;3.47;;;10.90;99.90;;;;;;494068;240;28635;-70
2022/05/09 01:09:46;;;;;;;4.77;4.10;;;10.90;99.90;;;;;;494629;237;28000;-72
2022/05/09 01:11:47;;;;;;;4.00;3.60;;;11.00;99.90;;;;;;494634;240;27829;-70
2022/05/09 01:13:48;;;;;;;4.10;3.80;;;11.00;99.90;;;;;;494629;240;28086;-70
2022/05/09 01:15:50;;;;;;;4.53;4.13;;;11.00;99.90;;;;;;494642;240;28110;-70
2022/05/09 01:17:51;;;;;;;4.50;4.10;;;11.00;99.90;;;;;;494652;240;28173;-70
2022/05/09 01:19:53;;;;;;;4.90;4.50;;;11.10;99.90;;;;;;494636;240;28022;-70
2022/05/09 01:21:53;;;;;;;6.80;4.30;;;11.00;99.90;;;;;;494653;240;28001;-70
2022/05/09 01:23:55;;;;;;;5.10;4.67;;;11.00;99.90;;;;;;494614;240;28271;-70
2022/05/09 01:25:57;;;;;;;5.10;4.60;;;11.00;99.90;;;;;;494614;240;28111;-70
2022/05/09 01:27:57;;;;;;;5.20;4.70;;;10.90;99.90;;;;;;494617;240;28428;-71
2022/05/09 01:29:59;;;;;;;4.13;3.83;;;10.90;99.90;;;;;;494622;240;28477;-73
2022/05/09 01:32:00;;;;;;;4.73;4.30;;;10.90;99.90;;;;;;494632;240;28304;-70
2022/05/09 01:34:01;;;;;;;4.20;3.90;;;10.90;99.90;;;;;;494619;240;28180;-70
2022/05/09 01:36:02;;;;;;;4.80;4.40;;;10.90;99.90;;;;;;494630;240;28677;-71
2022/05/09 01:38:03;;;;;;;5.60;5.10;;;10.80;99.90;;;;;;494644;240;28068;-71
2022/05/09 01:40:05;;;;;;;5.07;4.20;;;10.80;99.90;;;;;;494646;240;28346;-71
2022/05/09 01:42:06;;;;;;;4.60;4.20;;;10.70;99.90;;;;;;494620;240;28481;-71
2022/05/09 01:44:07;;;;;;;4.17;3.87;;;10.70;99.90;;;;;;494591;240;28614;-70
2022/05/09 01:46:09;;;;;;;4.67;4.27;;;10.60;99.90;;;;;;494671;240;27895;-74
2022/05/09 01:50:29;;;;;;;5.10;4.60;;;10.60;99.90;;;;;;494635;236;28583;-71
2022/05/09 01:52:30;;;;;;;4.53;4.13;;;10.50;99.90;;;;;;494657;240;28651;-70
2022/05/09 01:54:32;;;;;;;4.50;4.13;;;10.50;99.90;;;;;;494710;240;28149;-70
2022/05/09 01:56:33;;;;;;;4.30;4.00;;;10.50;99.90;;;;;;494660;240;27989;-75
2022/05/09 01:58:34;;;;;;;5.00;4.50;;;10.50;99.90;;;;;;494678;240;27730;-71
2022/05/09 02:00:35;;;;;;;4.97;4.57;;;10.50;99.90;;;;;;494680;240;28199;-71
2022/05/09 02:02:38;;;;;;;4.63;4.23;;;10.50;99.90;;;;;;494632;240;27889;-69
2022/05/09 02:04:41;;;;;;;5.17;4.13;;;10.40;99.90;;;;;;494513;240;27990;-70
2022/05/09 02:06:42;;;;;;;4.60;4.20;;;10.50;99.90;;;;;;494646;240;27859;-70
2022/05/09 02:08:43;;;;;;;4.80;4.40;;;10.40;99.90;;;;;;494695;240;28257;-73
2022/05/09 02:10:45;;;;;;;5.37;4.87;;;10.40;99.90;;;;;;494696;240;28338;-70
2022/05/09 02:12:46;;;;;;;4.67;4.27;;;10.40;99.90;;;;;;494659;240;28265;-70
2022/05/09 02:14:48;;;;;;;4.20;3.80;;;10.40;99.90;;;;;;494658;240;28287;-70
2022/05/09 02:16:48;;;;;;;4.70;4.30;;;10.40;99.90;;;;;;494613;240;27974;-70
2022/05/09 02:18:50;;;;;;;4.20;3.80;;;10.40;99.90;;;;;;494684;240;27978;-75
2022/05/09 02:20:51;;;;;;;4.40;4.00;;;10.40;99.90;;;;;;494652;240;27835;-70
2022/05/09 02:22:52;;;;;;;4.10;3.80;;;10.30;99.90;;;;;;494671;240;27742;-72
2022/05/09 02:24:53;;;;;;;4.60;4.20;;;10.20;99.90;;;;;;494629;240;27763;-70
2022/05/09 02:26:55;;;;;;;4.53;4.13;;;10.10;99.90;;;;;;494560;240;28003;-70
2022/05/09 02:28:56;;;;;;;4.47;4.10;;;10.10;99.90;;;;;;494526;240;27657;-72
2022/05/09 02:30:57;;;;;;;4.80;4.40;;;10.10;99.90;;;;;;494669;240;27835;-70
2022/05/09 02:32:58;;;;;;;4.80;4.40;;;10.00;99.90;;;;;;494658;240;27544;-71
2022/05/09 02:35:00;;;;;;;4.47;4.13;;;9.90;99.90;;;;;;494673;240;28338;-70
2022/05/09 02:37:01;;;;;;;4.70;4.30;;;9.90;99.90;;;;;;494622;240;28349;-70
2022/05/09 02:39:02;;;;;;;4.57;4.17;;;9.90;99.90;;;;;;494684;240;27939;-71
2022/05/09 02:41:03;;;;;;;4.67;4.27;;;9.90;99.90;;;;;;494653;240;28037;-70
2022/05/09 02:43:06;;;;;;;4.40;4.00;;;9.90;99.90;;;;;;494650;240;28016;-70
2022/05/09 02:45:07;;;;;;;4.23;3.90;;;9.80;99.90;;;;;;494593;240;28261;-70
2022/05/09 02:47:07;;;;;;;5.33;4.83;;;9.80;99.90;;;;;;494590;240;28348;-70
2022/05/09 02:49:08;;;;;;;4.63;4.23;;;9.80;99.90;;;;;;494657;240;28145;-73
2022/05/09 02:51:10;;;;;;;4.47;4.07;;;9.90;99.90;;;;;;494652;240;28210;-70
2022/05/09 02:53:13;;;;;;;4.37;3.97;;;9.80;99.90;;;;;;494648;240;28353;-72
2022/05/09 02:55:13;;;;;;;4.77;4.27;;;9.80;99.90;;;;;;494617;240;27790;-71
2022/05/09 02:57:14;;;;;;;4.97;4.57;;;9.80;99.90;;;;;;494576;236;27880;-70
2022/05/09 02:59:16;;;;;;;4.57;4.20;;;9.70;99.90;;;;;;494659;240;27503;-70
2022/05/09 03:01:17;;;;;;;4.67;4.27;;;9.70;99.90;;;;;;494669;240;28405;-70
2022/05/09 03:05:38;;;;;;;4.43;4.03;;;9.70;99.90;;;;;;494630;236;27897;-70
2022/05/09 03:07:40;;;;;;;4.43;4.03;;;9.70;99.90;;;;;;494648;240;27694;-73
2022/05/09 03:09:42;;;;;;;4.50;4.10;;;9.70;99.90;;;;;;494628;240;28008;-70
2022/05/09 03:11:43;;;;;;;4.10;3.77;;;9.70;99.90;;;;;;494632;240;27572;-70
2022/05/09 03:13:44;;;;;;;4.00;3.70;;;9.70;99.90;;;;;;494637;240;28100;-70
2022/05/09 03:15:45;;;;;;;5.00;4.50;;;9.70;99.90;;;;;;494660;240;27984;-73
2022/05/09 03:17:47;;;;;;;4.50;4.10;;;9.70;99.90;;;;;;494660;240;28568;-70
2022/05/09 03:19:48;;;;;;;3.90;3.60;;;9.70;99.90;;;;;;494637;240;28343;-70
2022/05/09 03:21:50;;;;;;;4.53;4.13;;;9.70;99.90;;;;;;494625;236;28267;-70
2022/05/09 03:23:50;;;;;;;5.03;4.53;;;9.70;99.90;;;;;;494643;240;28483;-70
2022/05/09 03:25:52;;;;;;;4.43;4.03;;;9.70;99.90;;;;;;494678;240;28569;-71
2022/05/09 03:27:53;;;;;;;4.80;4.40;;;9.60;99.90;;;;;;494622;240;27852;-70
2022/05/09 03:29:54;;;;;;;4.43;4.10;;;9.60;99.90;;;;;;494659;240;27899;-71
2022/05/09 03:31:55;;;;;;;3.40;3.10;;;9.60;99.90;;;;;;494663;240;28160;-70
2022/05/09 03:33:57;;;;;;;4.20;3.80;;;9.60;99.90;;;;;;494641;240;27889;-71
2022/05/09 03:35:59;;;;;;;4.00;3.70;;;9.60;99.90;;;;;;494672;240;28018;-70
2022/05/09 03:37:59;;;;;;;3.73;3.43;;;9.60;99.90;;;;;;494580;240;28056;-70
2022/05/09 03:40:00;;;;;;;4.17;3.77;;;9.50;99.90;;;;;;494653;240;28099;-71
2022/05/09 03:42:02;;;;;;;4.10;3.80;;;9.50;99.90;;;;;;494627;240;27870;-70
2022/05/09 03:44:03;;;;;;;3.97;3.67;;;9.40;99.90;;;;;;494632;240;27886;-70
2022/05/09 03:46:04;;;;;;;4.20;3.90;;;9.30;99.90;;;;;;494657;236;28033;-71
2022/05/09 03:48:05;;;;;;;4.23;3.93;;;9.40;99.90;;;;;;494628;240;27603;-70
2022/05/09 03:50:07;;;;;;;4.10;3.80;;;9.30;99.90;;;;;;494662;240;27852;-71
2022/05/09 03:52:08;;;;;;;3.73;3.43;;;9.30;99.90;;;;;;494625;240;27979;-70
2022/05/09 03:54:09;;;;;;;3.70;3.40;;;9.30;99.90;;;;;;494643;240;28032;-71
2022/05/09 03:56:11;;;;;;;4.50;4.10;;;9.30;99.90;;;;;;494623;240;29024;-74
2022/05/09 03:58:12;;;;;;;3.97;3.67;;;9.30;99.90;;;;;;494670;240;28318;-70
2022/05/09 04:00:14;;;;;;;3.90;3.60;;;9.30;99.90;;;;;;494639;240;27996;-70
2022/05/09 04:02:14;;;;;;;4.20;3.80;;;9.20;99.90;;;;;;494560;240;28133;-70
2022/05/09 04:04:15;;;;;;;4.20;3.90;;;9.30;99.90;;;;;;494639;240;28440;-70
2022/05/09 04:06:17;;;;;;;4.03;3.73;;;9.30;99.90;;;;;;494636;240;28281;-70
2022/05/09 04:08:20;;;;;;;4.17;3.87;;;9.40;99.90;;;;;;494636;240;27753;-70
2022/05/09 04:10:19;;;;;;;3.80;3.50;;;9.30;99.90;;;;;;494508;240;27895;-71
2022/05/09 04:12:20;;;;;;;4.20;3.70;;;9.40;99.90;;;;;;494643;240;27901;-69
2022/05/09 04:18:42;;;;;;;4.37;4.07;;;9.30;99.90;;;;;;494650;240;28205;-70
2022/05/09 04:20:44;;;;;;;4.67;4.27;;;9.30;99.90;;;;;;494646;240;28250;-71
2022/05/09 04:22:45;;;;;;;4.20;3.90;;;9.30;99.90;;;;;;494619;240;28188;-69
2022/05/09 04:24:46;;;;;;;4.93;4.47;;;9.30;99.90;;;;;;494651;240;27932;-71
2022/05/09 04:26:47;;;;;;;4.70;4.20;;;9.30;99.90;;;;;;494647;240;27945;-70
2022/05/09 04:28:49;;;;;;;3.87;3.60;;;9.30;99.90;;;;;;494648;240;27949;-70
2022/05/09 04:30:50;;;;;;;4.40;4.10;;;9.40;99.90;;;;;;494621;240;27968;-71
2022/05/09 04:32:51;;;;;;;4.13;3.83;;;9.40;99.90;;;;;;494615;240;28073;-70
2022/05/09 04:34:52;;;;;;;4.33;4.00;;;9.30;99.90;;;;;;494647;240;27864;-70
2022/05/09 04:36:54;;;;;;;4.40;4.10;;;9.30;99.90;;;;;;494642;240;27776;-75
2022/05/09 04:38:55;;;;;;;4.50;4.10;;;9.30;99.90;;;;;;494681;240;27387;-70
2022/05/09 04:40:58;;;;;;;4.27;3.87;;;9.30;99.90;;;;;;494644;240;28015;-71
2022/05/09 04:42:57;;;;;;;4.20;3.90;;;9.30;99.90;;;;;;494566;240;27898;-70
2022/05/09 04:44:59;;;;;;;4.50;4.10;;;9.30;99.90;;;;;;494637;240;27662;-70
2022/05/09 04:47:00;;;;;;;4.53;4.13;;;9.30;99.90;;;;;;494636;240;28004;-72
2022/05/09 04:49:01;;;;;;;4.00;3.70;;;9.30;99.90;;;;;;494617;240;27757;-71
2022/05/09 04:51:02;;;;;;;4.40;4.00;;;9.40;99.90;;;;;;494581;240;28097;-70
2022/05/09 04:53:04;;;;;;;4.43;4.07;;;9.40;99.90;;;;;;494567;240;27784;-70
2022/05/09 04:55:05;;;;;;;4.90;4.50;;;9.50;99.90;;;;;;494520;240;28577;-70
2022/05/09 04:57:06;;;;;;;4.10;3.80;;;9.50;99.90;;;;;;494632;240;29055;-73
2022/05/09 04:59:08;;;;;;;4.07;3.77;;;9.60;99.90;;;;;;494663;240;28502;-70
2022/05/09 05:01:09;;;;;;;4.10;3.80;;;9.70;99.90;;;;;;494594;240;28240;-70
2022/05/09 05:03:10;;;;;;;4.30;4.00;;;9.70;99.90;;;;;;494591;240;28294;-70
2022/05/09 05:05:11;;;;;;;5.90;4.13;;;9.70;99.90;;;;;;494617;240;27877;-70
2022/05/09 05:07:12;;;;;;;4.60;4.20;;;9.70;99.90;;;;;;494613;240;27520;-70
2022/05/09 05:09:14;;;;;;;4.60;4.20;;;9.70;99.90;;;;;;494637;240;28210;-70
2022/05/09 05:11:15;;;;;;;4.53;4.23;;;9.60;99.90;;;;;;494624;240;28084;-70
2022/05/09 05:13:17;;;;;;;5.07;4.67;;;9.60;99.90;;;;;;494646;240;27818;-71
2022/05/09 05:15:18;;;;;;;4.93;4.53;;;9.70;99.90;;;;;;494627;240;27659;-70
2022/05/09 05:17:19;;;;;;;4.90;4.50;;;9.80;99.90;;;;;;494670;240;27652;-73
2022/05/09 05:19:20;;;;;;;4.70;4.30;;;9.80;99.90;;;;;;494642;240;28207;-70
2022/05/09 05:21:21;;;;;;;5.00;4.60;;;9.80;99.90;;;;;;494631;240;28475;-70
2022/05/09 05:23:23;;;;;;;4.20;3.90;;;9.90;99.90;;;;;;494628;240;27935;-70
2022/05/09 05:25:24;;;;;;;4.30;4.00;;;10.00;99.90;;;;;;494641;240;28243;-70
2022/05/09 05:27:25;;;;;;;5.00;4.50;;;10.00;99.90;;;;;;494651;240;27791;-71
2022/05/09 05:29:26;;;;;;;4.23;3.93;;;10.10;99.90;;;;;;494624;240;27660;-70
2022/05/09 05:31:28;;;;;;;4.60;4.20;;;10.10;99.90;;;;;;494627;240;27920;-70
2022/05/09 05:33:29;;;;;;;4.50;4.10;;;10.20;99.90;;;;;;494619;240;27880;-70
2022/05/09 05:35:30;;;;;;;4.13;3.83;;;10.30;99.90;;;;;;494633;240;27528;-71
2022/05/09 05:37:32;;;;;;;5.27;4.77;;;10.40;99.90;;;;;;494653;240;27797;-70
2022/05/09 05:39:36;;;;;;;4.23;3.93;;;10.40;99.90;;;;;;494575;240;27729;-70
2022/05/09 05:41:34;;;;;;;4.00;3.70;;;10.50;99.90;;;;;;494352;240;27700;-70
2022/05/09 05:43:35;;;;;;;4.30;3.90;;;10.50;99.90;;;;;;494607;240;28040;-71
2022/05/09 05:45:36;;;;;;;4.80;4.40;;;10.60;99.90;;;;;;494647;240;27743;-70
2022/05/09 05:47:38;;;;;;;4.30;4.00;;;10.60;99.90;;;;;;494639;240;28227;-71
2022/05/09 05:49:39;;;;;;;4.50;4.20;;;10.70;99.90;;;;;;494607;240;28361;-70
2022/05/09 05:51:40;;;;;;;4.90;4.43;;;10.70;99.90;;;;;;494582;240;28344;-70
2022/05/09 05:53:41;;;;;;;4.20;3.90;;;10.70;99.90;;;;;;494624;240;27965;-70
2022/05/09 05:55:43;;;;;;;4.70;4.30;;;10.80;99.90;;;;;;494660;240;27919;-70
2022/05/09 05:57:44;;;;;;;6.77;6.17;;;11.00;99.90;;;;;;494629;240;27860;-71
2022/05/09 05:59:45;;;;;;;8.23;7.40;;;11.40;99.90;;;;;;494645;240;27956;-69
2022/05/09 06:01:47;;;;;;;7.70;7.00;;;11.60;99.90;;;;;;494634;240;27949;-71
2022/05/09 06:03:48;;;;;;;8.23;7.33;;;11.90;99.90;;;;;;494622;240;28065;-70
2022/05/09 06:05:49;;;;;;;9.10;8.00;;;12.10;99.90;;;;;;494662;240;28109;-70
2022/05/09 06:07:50;;;;;;;10.03;8.60;;;12.30;99.90;;;;;;494659;240;28180;-72
2022/05/09 06:09:51;;;;;;;9.67;8.67;;;12.30;99.90;;;;;;494650;240;28105;-70
2022/05/09 06:11:53;;;;;;;9.80;8.80;;;12.50;99.90;;;;;;494639;240;28775;-71
2022/05/09 06:13:54;;;;;;;9.93;8.90;;;12.50;99.90;;;;;;494590;240;28913;-70
2022/05/09 06:15:55;;;;;;;11.63;9.50;;;12.60;99.90;;;;;;494631;240;28494;-71
2022/05/09 06:17:57;;;;;;;10.77;9.10;;;12.70;99.90;;;;;;494650;240;28230;-73
2022/05/09 06:19:58;;;;;;;10.93;9.00;;;12.80;99.90;;;;;;494614;236;28292;-71
2022/05/09 06:22:01;;;;;;;10.53;9.40;;;12.80;99.90;;;;;;494627;240;28522;-71
2022/05/09 06:24:05;;;;;;;10.63;9.60;;;12.90;99.90;;;;;;494643;240;28796;-75
2022/05/09 06:26:06;;;;;;;10.10;8.93;;;12.90;99.90;;;;;;494568;240;28993;-70
2022/05/09 06:28:08;;;;;;;11.53;9.03;;;13.00;99.90;;;;;;494585;240;28295;-71
2022/05/09 06:30:09;;;;;;;11.30;9.03;;;13.00;99.90;;;;;;494478;240;28841;-73
2022/05/09 06:32:10;;;;;;;9.23;8.30;;;13.10;99.90;;;;;;494426;240;28347;-71
2022/05/09 06:34:13;;;;;;;9.73;8.70;;;13.10;99.90;;;;;;494387;240;28880;-72
2022/05/09 06:36:13;;;;;;;10.07;8.83;;;13.20;99.90;;;;;;494489;240;28240;-70
2022/05/09 06:38:15;;;;;;;10.20;9.13;;;13.20;99.90;;;;;;494682;240;28508;-71
2022/05/09 06:40:15;;;;;;;10.23;9.10;;;13.30;99.90;;;;;;494642;240;28379;-72
2022/05/09 06:42:16;;;;;;;11.37;9.67;;;13.40;99.90;;;;;;494652;240;28661;-71
2022/05/09 06:44:18;;;;;;;9.70;8.80;;;13.40;99.90;;;;;;494618;240;28734;-71
2022/05/09 06:46:19;;;;;;;12.90;9.90;;;13.50;99.90;;;;;;494647;240;28763;-71
2022/05/09 06:48:20;;;;;;;10.47;9.37;;;13.60;99.90;;;;;;494665;240;28183;-71
2022/05/09 06:50:21;;;;;;;10.27;9.27;;;13.60;99.90;;;;;;494674;240;28107;-74
2022/05/09 06:52:23;;;;;;;10.57;9.13;;;13.60;99.90;;;;;;494636;240;28289;-70
2022/05/09 06:54:24;;;;;;;9.33;8.30;;;13.70;99.90;;;;;;494652;240;28345;-71
2022/05/09 06:56:25;;;;;;;11.20;8.80;;;13.80;99.90;;;;;;494633;240;28171;-70
2022/05/09 06:58:27;;;;;;;10.13;9.13;;;13.80;99.90;;;;;;494669;240;28203;-71
2022/05/09 07:00:28;;;;;;;10.00;9.00;;;13.90;99.90;;;;;;494655;240;28252;-72
2022/05/09 07:02:31;;;;;;;10.40;9.30;;;14.00;99.90;;;;;;494639;240;28747;-70
2022/05/09 07:04:30;;;;;;;10.23;9.00;;;14.00;99.90;;;;;;494536;240;28773;-71
2022/05/09 07:06:31;;;;;;;12.57;8.23;;;14.10;99.90;;;;;;494633;240;28722;-70
2022/05/09 07:08:33;;;;;;;8.00;7.17;;;14.10;99.90;;;;;;494664;240;28109;-70
2022/05/09 07:10:34;;;;;;;9.00;8.20;;;14.20;99.90;;;;;;494667;240;28109;-71
2022/05/09 07:12:35;;;;;;;10.13;8.40;;;14.20;99.90;;;;;;494642;240;28295;-71
2022/05/09 07:14:37;;;;;;;9.87;8.70;;;14.30;99.90;;;;;;494641;240;28231;-71
2022/05/09 07:16:38;;;;;;;9.60;8.60;;;14.40;99.90;;;;;;494645;236;28236;-71
2022/05/09 07:18:39;;;;;;;9.00;8.20;;;14.40;99.90;;;;;;494665;240;28230;-71
2022/05/09 07:20:40;;;;;;;8.50;7.70;;;14.40;99.90;;;;;;494706;240;28539;-71
2022/05/09 07:22:41;;;;;;;10.43;8.70;;;14.50;99.90;;;;;;494648;240;28740;-71
2022/05/09 07:24:43;;;;;;;9.27;7.90;;;14.60;99.90;;;;;;494653;240;28845;-71
2022/05/09 07:26:44;;;;;;;13.37;7.53;;;14.60;99.90;;;;;;494658;240;30093;-71
2022/05/09 07:28:45;;;;;;;8.37;7.57;;;14.60;99.90;;;;;;494672;240;28493;-71
2022/05/09 07:30:46;;;;;;;9.43;8.47;;;14.60;99.90;;;;;;494686;240;28444;-70
2022/05/09 07:32:48;;;;;;;11.00;8.50;;;14.70;99.90;;;;;;494654;240;28284;-71
2022/05/09 07:34:49;;;;;;;8.37;7.63;;;14.70;99.90;;;;;;494665;240;28430;-72
2022/05/09 07:36:50;;;;;;;8.80;8.00;;;14.80;99.90;;;;;;494663;240;28338;-70
2022/05/09 07:38:51;;;;;;;8.80;7.43;;;14.80;99.90;;;;;;494685;240;28515;-71
2022/05/09 07:40:53;;;;;;;9.17;7.50;;;14.90;99.90;;;;;;494672;240;28274;-74
2022/05/09 07:42:54;;;;;;;7.73;6.87;;;14.90;99.90;;;;;;494670;240;28429;-70
2022/05/09 07:44:56;;;;;;;7.77;7.07;;;15.00;99.90;;;;;;494645;240;28473;-72
2022/05/09 07:46:56;;;;;;;7.77;7.00;;;15.00;99.90;;;;;;494601;240;29030;-71
2022/05/09 07:48:58;;;;;;;10.73;8.00;;;15.00;99.90;;;;;;494665;240;29306;-72
2022/05/09 07:50:59;;;;;;;8.00;7.17;;;15.10;99.90;;;;;;494650;240;29319;-70
2022/05/09 07:53:00;;;;;;;9.53;7.23;;;15.20;99.90;;;;;;494664;240;28725;-71
2022/05/09 07:55:03;;;;;;;7.80;7.00;;;15.20;99.90;;;;;;494683;240;28758;-72
2022/05/09 07:57:04;;;;;;;8.77;7.20;;;15.20;99.90;;;;;;494640;240;28768;-70
2022/05/09 07:59:05;;;;;;;7.63;6.83;;;15.30;99.90;;;;;;494637;240;28839;-70
2022/05/09 08:01:06;;;;;;;8.77;6.93;;;15.20;99.90;;;;;;494681;240;29234;-71
2022/05/09 08:03:07;;;;;;;11.13;7.70;;;15.40;99.90;;;;;;494611;240;29286;-72
2022/05/09 08:05:10;;;;;;;8.87;6.37;;;15.50;99.90;;;;;;494679;240;29291;-70
2022/05/09 08:07:10;;;;;;;7.20;6.60;;;15.40;99.90;;;;;;494526;239;28866;-71
2022/05/09 08:09:11;;;;;;;6.90;6.30;;;15.40;99.90;;;;;;494639;240;28736;-70
2022/05/09 08:11:12;;;;;;;7.93;7.20;;;15.60;99.90;;;;;;494662;236;28716;-70
2022/05/09 08:13:14;;;;;;;7.43;6.73;;;15.60;99.90;;;;;;494674;240;28753;-73
2022/05/09 08:15:15;;;;;;;7.37;6.67;;;15.90;99.90;;;;;;494628;240;28795;-71
2022/05/09 08:17:16;;;;;;;7.40;6.60;;;15.90;99.90;;;;;;494645;240;28855;-71
2022/05/09 08:19:17;;;;;;;6.47;5.87;;;16.00;99.90;;;;;;494642;240;28724;-72
2022/05/09 08:21:19;;;;;;;7.23;6.53;;;15.90;99.90;;;;;;494664;240;28719;-71
2022/05/09 08:23:20;;;;;;;7.20;6.17;;;16.10;99.90;;;;;;494665;240;28808;-73
2022/05/09 08:25:21;;;;;;;10.10;6.63;;;16.20;99.90;;;;;;494655;240;29203;-71
2022/05/09 08:27:23;;;;;;;7.67;6.87;;;16.30;99.90;;;;;;494647;240;29431;-71
2022/05/09 08:29:24;;;;;;;7.70;6.67;;;16.20;99.90;;;;;;494621;240;29299;-71
2022/05/09 08:31:25;;;;;;;6.70;6.00;;;16.00;99.90;;;;;;494685;236;28755;-70
2022/05/09 08:33:26;;;;;;;7.47;6.77;;;15.90;99.90;;;;;;494664;240;28956;-73
2022/05/09 08:35:27;;;;;;;8.20;7.27;;;16.20;99.90;;;;;;494666;240;28826;-71
2022/05/09 08:37:29;;;;;;;8.60;7.43;;;16.30;99.90;;;;;;494646;240;28848;-71
2022/05/09 08:39:32;;;;;;;6.10;5.50;;;16.30;99.90;;;;;;494660;237;28815;-71
2022/05/09 08:41:31;;;;;;;7.73;6.40;;;16.20;99.90;;;;;;494517;240;28857;-71
2022/05/09 08:43:32;;;;;;;7.13;6.50;;;16.30;99.90;;;;;;494698;240;28744;-73
2022/05/09 08:45:34;;;;;;;8.53;6.97;;;16.40;99.90;;;;;;494657;240;28917;-71
2022/05/09 08:47:35;;;;;;;7.70;6.90;;;16.30;99.90;;;;;;494676;240;29351;-71
2022/05/09 08:49:36;;;;;;;7.37;6.67;;;16.40;99.90;;;;;;494630;240;29200;-71
2022/05/09 08:51:37;;;;;;;6.33;5.83;;;16.40;99.90;;;;;;494671;240;29458;-71
2022/05/09 08:53:39;;;;;;;6.03;5.53;;;16.40;99.90;;;;;;494680;240;29410;-75
2022/05/09 08:55:40;;;;;;;7.30;5.80;;;16.50;99.90;;;;;;494667;240;28734;-71
2022/05/09 08:57:41;;;;;;;7.00;6.30;;;16.80;99.90;;;;;;494667;240;28862;-71
2022/05/09 08:59:43;;;;;;;8.13;6.70;;;16.70;99.90;;;;;;494656;240;28935;-71
2022/05/09 09:01:45;;;;;;;7.20;6.50;;;16.80;99.90;;;;;;494715;240;28753;-71
2022/05/09 09:03:46;;;;;;;8.73;6.80;;;16.80;99.90;;;;;;494680;240;28720;-71
2022/05/09 09:05:47;;;;;;;8.23;7.40;;;16.80;99.90;;;;;;494634;240;29309;-71
2022/05/09 09:07:48;;;;;;;7.87;7.17;;;17.00;99.90;;;;;;494614;240;29176;-71
2022/05/09 09:09:50;;;;;;;6.80;6.20;;;17.10;99.90;;;;;;494624;240;29260;-70
2022/05/09 09:11:51;;;;;;;6.90;6.30;;;17.00;99.90;;;;;;494688;240;28865;-72
2022/05/09 09:13:52;;;;;;;8.50;6.23;;;17.00;99.90;;;;;;494676;240;28828;-71
2022/05/09 09:15:54;;;;;;;8.43;6.17;;;17.10;99.90;;;;;;494655;240;28831;-72
2022/05/09 09:17:55;;;;;;;6.70;6.10;;;17.30;99.90;;;;;;494639;240;28771;-71
2022/05/09 09:19:56;;;;;;;6.90;6.30;;;17.40;99.90;;;;;;494545;240;28832;-71
2022/05/09 09:21:57;;;;;;;6.67;6.00;;;17.30;99.90;;;;;;494706;240;28776;-70
2022/05/09 09:23:59;;;;;;;7.87;7.23;;;17.40;99.90;;;;;;494671;240;28791;-71
2022/05/09 09:26:00;;;;;;;7.93;6.80;;;17.70;99.90;;;;;;494580;240;28768;-72
2022/05/09 09:28:01;;;;;;;7.25;6.53;;;17.50;99.90;;;;;;493432;240;36676;-71
2022/05/09 09:30:05;;;;;;;7.10;6.40;;;17.60;99.90;;;;;;494636;240;27891;-71
2022/05/09 09:32:04;;;;;;;8.10;7.30;;;17.60;99.90;;;;;;494328;236;29235;-71
2022/05/09 09:34:05;;;;;;;6.23;5.67;;;17.70;99.90;;;;;;494631;240;29211;-71
2022/05/09 09:36:06;;;;;;;6.87;5.90;;;17.50;99.90;;;;;;494521;240;28750;-71
2022/05/09 09:38:07;;;;;;;6.63;6.00;;;17.80;99.90;;;;;;494658;240;28717;-72
2022/05/09 09:40:09;;;;;;;6.30;5.70;;;18.30;99.90;;;;;;494635;240;28987;-72
2022/05/09 09:42:10;;;;;;;6.63;5.10;;;18.20;99.90;;;;;;494689;240;28813;-71
2022/05/09 09:44:12;;;;;;;6.20;5.60;;;18.00;99.90;;;;;;494641;240;28712;-71
2022/05/09 09:46:12;;;;;;;5.60;5.13;;;17.70;99.90;;;;;;494574;240;28788;-73
2022/05/09 09:48:14;;;;;;;5.47;5.07;;;17.60;99.90;;;;;;494631;240;28904;-71
2022/05/09 09:50:15;;;;;;;5.07;4.67;;;17.60;99.90;;;;;;494640;240;28766;-71
2022/05/09 09:52:16;;;;;;;5.47;5.00;;;17.70;99.90;;;;;;494668;240;29661;-71
2022/05/09 09:54:17;;;;;;;5.50;5.00;;;17.90;99.90;;;;;;494660;240;29371;-72
2022/05/09 09:56:19;;;;;;;6.53;5.93;;;18.20;99.90;;;;;;494659;240;29277;-72
2022/05/09 09:58:20;;;;;;;9.90;5.90;;;18.20;99.90;;;;;;494664;240;29182;-71
2022/05/09 10:00:21;;;;;;;5.73;5.23;;;18.30;99.90;;;;;;494580;240;28752;-71
2022/05/09 10:02:22;;;;;;;6.30;5.70;;;18.10;99.90;;;;;;494632;240;28812;-72
2022/05/09 10:04:24;;;;;;;9.43;6.20;;;18.30;99.90;;;;;;494628;240;28722;-71
2022/05/09 10:06:25;;;;;;;5.63;5.03;;;18.50;99.90;;;;;;494635;240;28782;-73
2022/05/09 10:08:26;;;;;;;5.73;5.23;;;18.50;99.90;;;;;;494667;240;28718;-71
2022/05/09 10:10:28;;;;;;;4.83;4.50;;;18.60;99.90;;;;;;494690;240;28872;-72
2022/05/09 10:12:29;;;;;;;5.70;4.57;;;18.70;99.90;;;;;;494671;240;29257;-75
2022/05/09 10:14:30;;;;;;;4.53;4.17;;;18.70;99.90;;;;;;494659;240;28828;-71
2022/05/09 10:16:31;;;;;;;5.10;4.70;;;18.90;99.90;;;;;;494677;240;28848;-71
2022/05/09 10:18:32;;;;;;;5.77;5.10;;;19.10;99.90;;;;;;494608;240;29268;-71
2022/05/09 10:20:34;;;;;;;4.70;4.30;;;19.10;99.90;;;;;;494676;240;29343;-71
2022/05/09 10:24:57;;;;;;;5.10;4.60;;;19.00;99.90;;;;;;494652;240;29183;-71
2022/05/09 10:26:56;;;;;;;5.00;4.60;;;19.20;99.90;;;;;;494493;240;28848;-72
2022/05/09 10:28:57;;;;;;;4.43;4.13;;;19.60;99.90;;;;;;494667;240;28843;-71
2022/05/09 10:30:58;;;;;;;4.30;3.90;;;19.50;99.90;;;;;;494674;240;28754;-72
2022/05/09 10:33:00;;;;;;;5.17;4.77;;;19.50;99.90;;;;;;494641;240;28848;-73
2022/05/09 10:35:01;;;;;;;4.10;3.80;;;19.60;99.90;;;;;;494636;240;28820;-71
2022/05/09 10:37:02;;;;;;;4.60;4.20;;;19.60;99.90;;;;;;494629;240;28889;-72
2022/05/09 10:39:03;;;;;;;6.60;5.50;;;19.60;99.90;;;;;;494647;240;29205;-71
2022/05/09 10:41:09;;;;;;;6.17;5.00;;;19.90;99.90;;;;;;494656;240;28709;-71
2022/05/09 10:43:06;;;;;;;4.80;4.40;;;20.10;99.90;;;;;;494209;240;29221;-72
2022/05/09 10:45:07;;;;;;;5.97;4.67;;;20.20;99.90;;;;;;494616;240;29192;-71